Tetide — IVTN — position and weather

sailwx.info

Track history (hours):
 
Tides and Currents Weather Stations Pressure Air Temp Water Temp Dewpoint Dewpoint Depression Visibility Wind Speed Wind Dir Waves Ship Positions

Tetide

Last reported at 2018-Apr-25 18:02 UTC. Time now 2018-Apr-26 03:22 UTC.
Position N 40°55' E 013°01'.

Length 70 m; draft 3.4 m.

Type: Passenger vessel. MMSI: 247043100.

Date/timePositionNaut miles runAvg speedWind from/ knotsBaromVisibWave heightAir tempDewpointWater temp
2018-Apr-25 18:02N 40°55' E 013°01'014.4
2018-Apr-25 18:00N 40°56' E 013°02'714.1
2018-Apr-25 17:30N 40°60' E 013°10'714.1
2018-Apr-25 17:00N 41°03' E 013°18'714.0
2018-Apr-25 16:30N 41°07' E 013°25'7 4.2
2018-Apr-25 14:43N 41°11' E 013°34'514.5
2018-Apr-25 14:24N 41°09' E 013°29'614.9
2018-Apr-25 14:00N 41°05' E 013°22'815.0
2018-Apr-25 13:30N 41°01' E 013°14'814.9
2018-Apr-25 12:58N 40°57' E 013°05'3 0.8
2018-Apr-25 09:23N 40°56' E 013°01'33 7.4
2018-Apr-25 04:53N 41°15' E 013°37'0 0.0
2018-Apr-25 03:35N 41°15' E 013°37'0 0.0
2018-Apr-25 03:27N 41°15' E 013°37'0 0.0
2018-Apr-25 02:59N 41°15' E 013°37'0 0.0
2018-Apr-25 02:29N 41°15' E 013°37'0 0.0
2018-Apr-25 00:15N 41°15' E 013°37'0 0.0
2018-Apr-24 23:56N 41°15' E 013°37'0 0.0
2018-Apr-24 23:25N 41°15' E 013°37'0 0.0
2018-Apr-24 23:00N 41°15' E 013°37'0 0.0
2018-Apr-24 22:30N 41°15' E 013°37'0 0.0
2018-Apr-24 22:00N 41°15' E 013°37'0 0.0
2018-Apr-24 21:01N 41°15' E 013°37'0 0.1
2018-Apr-24 20:59N 41°15' E 013°37'0 0.0
2018-Apr-24 20:30N 41°15' E 013°37'0 0.0
2018-Apr-24 20:00N 41°15' E 013°37'0 0.0
2018-Apr-24 16:41N 41°15' E 013°37'0 0.0
2018-Apr-24 16:21N 41°15' E 013°37'0 0.0
2018-Apr-24 15:33N 41°15' E 013°37'0 0.0
2018-Apr-24 15:30N 41°15' E 013°37'33 1.6
2018-Apr-23 18:32N 40°55' E 013°01'014.1
2018-Apr-23 18:30N 40°55' E 013°02'714.1
2018-Apr-23 18:00N 40°59' E 013°10'714.2
2018-Apr-23 17:30N 41°03' E 013°17'1714.2
2018-Apr-23 16:20N 41°12' E 013°36'3 8.5
2018-Apr-23 15:59N 41°15' E 013°37'0 0.0
2018-Apr-23 15:30N 41°15' E 013°37'0 0.5
2018-Apr-23 15:00N 41°15' E 013°37'1614.3
2018-Apr-23 13:54N 40°60' E 013°32'614.6
2018-Apr-23 13:28N 40°54' E 013°29'3 0.1
2018-Apr-22 13:40N 40°57' E 013°31'314.7
2018-Apr-22 13:30N 40°54' E 013°29'21 1.1
2018-Apr-21 17:58N 40°55' E 013°01'714.2
2018-Apr-21 17:30N 40°59' E 013°08'714.2
2018-Apr-21 17:00N 41°03' E 013°16'714.6
2018-Apr-21 16:30N 41°07' E 013°24'814.6
2018-Apr-21 15:59N 41°11' E 013°33'510.9
2018-Apr-21 15:30N 41°15' E 013°37'0 0.8
2018-Apr-21 15:00N 41°15' E 013°37'714.2
2018-Apr-21 14:30N 41°08' E 013°35'714.3
2018-Apr-21 14:00N 41°01' E 013°33'714.4
2018-Apr-21 13:30N 40°55' E 013°29'21 2.9
2018-Apr-21 06:08N 41°15' E 013°37'411.2
2018-Apr-21 05:47N 41°12' E 013°35'414.6
2018-Apr-21 05:30N 41°10' E 013°30'8 0.5
2018-Apr-20 15:11N 41°15' E 013°37'412.3
2018-Apr-20 14:52N 41°11' E 013°35'814.2
2018-Apr-20 14:16N 41°07' E 013°26'12 0.5
2018-Apr-19 13:35N 40°55' E 013°30'214.3
2018-Apr-19 13:27N 40°54' E 013°29'6 9.5
2018-Apr-19 12:50N 40°48' E 013°26'  
Track history (hours):
 
Tides and Currents Weather Stations Pressure Air Temp Water Temp Dewpoint Dewpoint Depression Visibility Wind Speed Wind Dir Waves Ship Positions

Tetide

Last reported at 2018-Apr-25 18:02 UTC. Time now 2018-Apr-26 03:22 UTC.
Position N 40°55' E 013°01'.

Length 70 m; draft 3.4 m.

Type: Passenger vessel. MMSI: 247043100.

Date/timePositionNaut miles runAvg speedWind from/ knotsBaromVisibWave heightAir tempDewpointWater temp
2018-Apr-25 18:02N 40°55' E 013°01'014.4
2018-Apr-25 18:00N 40°56' E 013°02'714.1
2018-Apr-25 17:30N 40°60' E 013°10'714.1
2018-Apr-25 17:00N 41°03' E 013°18'714.0
2018-Apr-25 16:30N 41°07' E 013°25'7 4.2
2018-Apr-25 14:43N 41°11' E 013°34'514.5
2018-Apr-25 14:24N 41°09' E 013°29'614.9
2018-Apr-25 14:00N 41°05' E 013°22'815.0
2018-Apr-25 13:30N 41°01' E 013°14'814.9
2018-Apr-25 12:58N 40°57' E 013°05'3 0.8
2018-Apr-25 09:23N 40°56' E 013°01'33 7.4
2018-Apr-25 04:53N 41°15' E 013°37'0 0.0
2018-Apr-25 03:35N 41°15' E 013°37'0 0.0
2018-Apr-25 03:27N 41°15' E 013°37'0 0.0
2018-Apr-25 02:59N 41°15' E 013°37'0 0.0
2018-Apr-25 02:29N 41°15' E 013°37'0 0.0
2018-Apr-25 00:15N 41°15' E 013°37'0 0.0
2018-Apr-24 23:56N 41°15' E 013°37'0 0.0
2018-Apr-24 23:25N 41°15' E 013°37'0 0.0
2018-Apr-24 23:00N 41°15' E 013°37'0 0.0
2018-Apr-24 22:30N 41°15' E 013°37'0 0.0
2018-Apr-24 22:00N 41°15' E 013°37'0 0.0
2018-Apr-24 21:01N 41°15' E 013°37'0 0.1
2018-Apr-24 20:59N 41°15' E 013°37'0 0.0
2018-Apr-24 20:30N 41°15' E 013°37'0 0.0
2018-Apr-24 20:00N 41°15' E 013°37'0 0.0
2018-Apr-24 16:41N 41°15' E 013°37'0 0.0
2018-Apr-24 16:21N 41°15' E 013°37'0 0.0
2018-Apr-24 15:33N 41°15' E 013°37'0 0.0
2018-Apr-24 15:30N 41°15' E 013°37'33 1.6
2018-Apr-23 18:32N 40°55' E 013°01'014.1
2018-Apr-23 18:30N 40°55' E 013°02'714.1
2018-Apr-23 18:00N 40°59' E 013°10'714.2
2018-Apr-23 17:30N 41°03' E 013°17'1714.2
2018-Apr-23 16:20N 41°12' E 013°36'3 8.5
2018-Apr-23 15:59N 41°15' E 013°37'0 0.0
2018-Apr-23 15:30N 41°15' E 013°37'0 0.5
2018-Apr-23 15:00N 41°15' E 013°37'1614.3
2018-Apr-23 13:54N 40°60' E 013°32'614.6
2018-Apr-23 13:28N 40°54' E 013°29'3 0.1
2018-Apr-22 13:40N 40°57' E 013°31'314.7
2018-Apr-22 13:30N 40°54' E 013°29'21 1.1
2018-Apr-21 17:58N 40°55' E 013°01'714.2
2018-Apr-21 17:30N 40°59' E 013°08'714.2
2018-Apr-21 17:00N 41°03' E 013°16'714.6
2018-Apr-21 16:30N 41°07' E 013°24'814.6
2018-Apr-21 15:59N 41°11' E 013°33'510.9
2018-Apr-21 15:30N 41°15' E 013°37'0 0.8
2018-Apr-21 15:00N 41°15' E 013°37'714.2
2018-Apr-21 14:30N 41°08' E 013°35'714.3
2018-Apr-21 14:00N 41°01' E 013°33'714.4
2018-Apr-21 13:30N 40°55' E 013°29'21 2.9
2018-Apr-21 06:08N 41°15' E 013°37'411.2
2018-Apr-21 05:47N 41°12' E 013°35'414.6
2018-Apr-21 05:30N 41°10' E 013°30'8 0.5
2018-Apr-20 15:11N 41°15' E 013°37'412.3
2018-Apr-20 14:52N 41°11' E 013°35'814.2
2018-Apr-20 14:16N 41°07' E 013°26'12 0.5
2018-Apr-19 13:35N 40°55' E 013°30'214.3
2018-Apr-19 13:27N 40°54' E 013°29'6 9.5
2018-Apr-19 12:50N 40°48' E 013°26'  

Dump ship's entire track history